ID Time Temp Humidity Light PM2.5 PM10 Voltage Extra Firmware Position Fcnt TTN version Gateways Distance RSSI LSNR Radiosettings
2026-05-08 20:06:38 -26°C -26% 3.66V / 3V 724,24,950,12,140 v255 52.1762 / 5.38998 9593 ttn.v3 0.841km -111 -9.5 868.5MHz, SF9BW125, 4/5CR
2026-05-08 19:51:37 -26°C -26% 3.66V / 3V 725,29,950,12,140 v255 52.1762 / 5.38998 9592 ttn.v3 0.365km -116 -4.2 868.5MHz, SF9BW125, 4/5CR
0.841km -111 -7.75 868.5MHz, SF9BW125, 4/5CR
2026-05-08 19:36:29 -26°C -26% 3.66V / 3V 725,31,951,12,140 v255 52.1762 / 5.38998 9591 ttn.v3 0.365km -119 -6.2 868.5MHz, SF9BW125, 4/5CR
0.841km -115 -8.25 868.5MHz, SF9BW125, 4/5CR
2026-05-08 19:21:46 -26°C -26% 3.66V / 3V 727,29,951,12,140 v255 52.1762 / 5.38998 9590 ttn.v3 0.365km -115 -5.2 868.5MHz, SF9BW125, 4/5CR
0.841km -113 -7 868.5MHz, SF9BW125, 4/5CR
2026-05-08 19:06:29 -26°C -26% 3.66V / 3V 726,36,951,12,140 v255 52.1762 / 5.38998 9589 ttn.v3 0.365km -116 -5.5 868.5MHz, SF9BW125, 4/5CR
0.841km -107 -11.5 868.5MHz, SF9BW125, 4/5CR
2026-05-08 18:51:29 -26°C -26% 3.66V / 3V 727,42,951,12,140 v255 52.1762 / 5.38998 9588 ttn.v3 0.365km -114 -4.2 868.5MHz, SF9BW125, 4/5CR
0.841km -109 -6.5 868.5MHz, SF9BW125, 4/5CR
2026-05-08 18:36:28 -26°C -26% 3.66V / 3V 726,17,951,12,140 v255 52.1762 / 5.38998 9587 ttn.v3 0.841km -109 -7.5 868.5MHz, SF9BW125, 4/5CR
2026-05-08 18:21:28 -26°C -26% 3.66V / 3V 726,25,951,12,140 v255 52.1762 / 5.38998 9586 ttn.v3 0.841km -109 -9 868.5MHz, SF9BW125, 4/5CR
2026-05-08 18:06:28 -26°C -26% 3.66V / 3V 726,42,951,12,140 v255 52.1762 / 5.38998 9585 ttn.v3 0.841km -105 -7.5 868.5MHz, SF9BW125, 4/5CR
2026-05-08 17:51:28 -26°C -26% 3.66V / 3V 725,44,952,12,140 v255 52.1762 / 5.38998 9584 ttn.v3 0.365km -114 -4 868.5MHz, SF9BW125, 4/5CR
0.841km -105 -9.25 868.5MHz, SF9BW125, 4/5CR
2026-05-08 17:21:28 -26°C -26% 3.66V / 3V 727,46,951,12,149 v255 52.1762 / 5.38998 9582 ttn.v3 0.841km -113 -5 868.5MHz, SF9BW125, 4/5CR
2026-05-08 17:06:35 -26°C -26% 3.66V / 3V 727,47,951,12,149 v255 52.1762 / 5.38998 9581 ttn.v3 0.365km -102 -2.2 868.5MHz, SF9BW125, 4/5CR
2026-05-08 16:51:28 -26°C -26% 3.66V / 3V 726,48,952,12,149 v255 52.1762 / 5.38998 9580 ttn.v3 0.841km -106 -10.5 868.5MHz, SF9BW125, 4/5CR
2026-05-08 16:36:28 -26°C -26% 3.66V / 3V 726,46,952,12,140 v255 52.1762 / 5.38998 9579 ttn.v3 0.365km -111 -5.8 868.5MHz, SF9BW125, 4/5CR
0.841km -109 -8.25 868.5MHz, SF9BW125, 4/5CR
2026-05-08 16:21:28 -26°C -26% 3.66V / 3V 726,48,951,12,149 v255 52.1762 / 5.38998 9578 ttn.v3 0.841km -115 -8.5 868.5MHz, SF9BW125, 4/5CR
2026-05-08 15:51:28 -26°C -26% 3.66V / 3V 726,46,949,12,149 v255 52.1762 / 5.38998 9576 ttn.v3 0.365km -116 -2.8 868.5MHz, SF9BW125, 4/5CR
0.841km -109 -4.25 868.5MHz, SF9BW125, 4/5CR
2026-05-08 15:36:27 -26°C -26% 3.66V / 3V 726,45,949,12,149 v255 52.1762 / 5.38998 9575 ttn.v3 0.841km -107 -10.5 868.5MHz, SF9BW125, 4/5CR
2026-05-08 15:21:27 -26°C -26% 3.66V / 3V 729,19,952,12,149 v255 52.1762 / 5.38998 9574 ttn.v3 0.365km -106 -8.5 868.5MHz, SF9BW125, 4/5CR
2026-05-08 14:51:27 -26°C -26% 3.66V / 3V 729,21,951,12,149 v255 52.1762 / 5.38998 9572 ttn.v3 0.841km -109 -7 868.5MHz, SF9BW125, 4/5CR
2026-05-08 14:37:10 -26°C -26% 3.66V / 3V 732,33,950,12,158 v255 52.1762 / 5.38998 9571 ttn.v3 0.365km -93 -7 868.5MHz, SF12BW125, 4/5CR
0.841km -111 -10.5 868.5MHz, SF12BW125, 4/5CR
2.814km -112 -15.8 868.5MHz, SF12BW125, 4/5CR
2026-05-08 14:21:27 -26°C -26% 3.66V / 3V 729,39,950,12,158 v255 52.1762 / 5.38995 9570 ttn.v3 0.841km -108 -8.25 868.5MHz, SF9BW125, 4/5CR
2026-05-08 14:06:41 -26°C -26% 3.66V / 3V 729,42,950,12,158 v255 52.1762 / 5.38995 9569 ttn.v3 0.367km -116 -8.2 868.5MHz, SF9BW125, 4/5CR
0.841km -111 -8.25 868.5MHz, SF9BW125, 4/5CR
2026-05-08 13:51:27 -26°C -26% 3.66V / 3V 728,44,949,12,167 v255 52.1762 / 5.38995 9568 ttn.v3 0.841km -113 -6.75 868.5MHz, SF9BW125, 4/5CR
2026-05-08 13:36:27 -26°C -26% 3.66V / 3V 728,47,950,12,175 v255 52.1762 / 5.38995 9567 ttn.v3 0.367km -115 -2.5 868.5MHz, SF9BW125, 4/5CR
0.841km -108 -6 868.5MHz, SF9BW125, 4/5CR
2026-05-08 13:21:27 -26°C -26% 3.66V / 3V 727,49,947,12,175 v255 52.1762 / 5.38995 9566 ttn.v3 0.367km -115 -4 868.5MHz, SF9BW125, 4/5CR
0.841km -113 -5.5 868.5MHz, SF9BW125, 4/5CR
2026-05-08 13:06:33 -26°C -26% 3.66V / 3V 724,51,946,12,158 v255 52.1762 / 5.38995 9565 ttn.v3 0.367km -114 -6.2 868.5MHz, SF9BW125, 4/5CR
2026-05-08 12:36:34 -26°C -26% 3.66V / 3V 725,53,944,12,158 v255 52.1762 / 5.38995 9563 ttn.v3 0.841km -108 -5.5 868.5MHz, SF9BW125, 4/5CR
2026-05-08 12:21:27 -26°C -26% 3.66V / 3V 721,53,940,12,158 v255 52.1762 / 5.38995 9562 ttn.v3 0.841km -109 -4.75 868.5MHz, SF9BW125, 4/5CR
2026-05-08 12:06:26 -26°C -26% 3.66V / 3V 722,53,939,12,149 v255 52.1762 / 5.38995 9561 ttn.v3 0.841km -108 -9.25 868.5MHz, SF9BW125, 4/5CR
2026-05-08 11:51:26 -26°C -26% 3.66V / 3V 719,53,936,12,140 v255 52.1762 / 5.38995 9560 ttn.v3 0.841km -109 -10.75 868.5MHz, SF9BW125, 4/5CR
2026-05-08 11:21:26 -26°C -26% 3.66V / 3V 721,52,934,12,140 v255 52.1762 / 5.38995 9558 ttn.v3 0.367km -115 -8.5 868.5MHz, SF9BW125, 4/5CR
0.841km -108 -10.25 868.5MHz, SF9BW125, 4/5CR
2026-05-08 11:06:26 -26°C -26% 3.66V / 3V 724,51,932,12,149 v255 52.1762 / 5.38995 9557 ttn.v3 0.367km -115 -3.5 868.5MHz, SF9BW125, 4/5CR
0.841km -111 -6.75 868.5MHz, SF9BW125, 4/5CR
2026-05-08 10:36:34 -26°C -26% 3.66V / 3V 709,50,915,12,140 v255 52.1762 / 5.38995 9555 ttn.v3 0.841km -111 -5.5 868.5MHz, SF9BW125, 4/5CR
2026-05-08 10:06:26 -26°C -26% 3.66V / 3V 657,53,873,12,123 v255 52.1762 / 5.38995 9553 ttn.v3 0.841km -105 -8.75 868.5MHz, SF9BW125, 4/5CR
2026-05-08 09:51:26 -26°C -26% 3.66V / 3V 637,53,867,12,123 v255 52.1762 / 5.38995 9552 ttn.v3 0.367km -111 -0.2 868.5MHz, SF9BW125, 4/5CR
0.841km -106 -12 868.5MHz, SF9BW125, 4/5CR
2026-05-08 09:36:33 -26°C -26% 3.66V / 3V 610,53,862,12,123 v255 52.1762 / 5.38995 9551 ttn.v3 0.841km -107 -9 868.5MHz, SF9BW125, 4/5CR
2026-05-08 09:21:26 -26°C -26% 3.66V / 3V 590,52,858,12,123 v255 52.1762 / 5.38995 9550 ttn.v3 0.841km -109 -8.25 868.5MHz, SF9BW125, 4/5CR
2026-05-08 09:06:34 -26°C -26% 3.66V / 3V 570,53,854,12,114 v255 52.1762 / 5.38995 9549 ttn.v3 0.841km -111 -4.75 868.5MHz, SF9BW125, 4/5CR
0.367km -114 -7.5 868.5MHz, SF9BW125, 4/5CR
2026-05-08 08:21:25 -26°C -26% 3.66V / 3V 552,49,847,12,114 v255 52.1762 / 5.38995 9546 ttn.v3 0.841km -109 -3.25 868.5MHz, SF9BW125, 4/5CR
2026-05-08 07:51:25 -26°C -26% 3.66V / 3V 547,49,844,12,114 v255 52.1762 / 5.38995 9544 ttn.v3 2.812km -118 -13.2 868.5MHz, SF9BW125, 4/5CR
2026-05-08 07:21:25 -26°C -26% 3.66V / 3V 545,49,843,12,114 v255 52.1762 / 5.38995 9542 ttn.v3 0.841km -109 -6.25 868.5MHz, SF9BW125, 4/5CR
2026-05-08 07:06:25 -26°C -26% 3.66V / 3V 545,49,843,12,114 v255 52.1762 / 5.38995 9541 ttn.v3 0.367km -116 -6 868.5MHz, SF9BW125, 4/5CR
0.841km -112 -9 868.5MHz, SF9BW125, 4/5CR
2026-05-08 06:21:24 -26°C -26% 3.66V / 3.01V 548,53,845,12,114 v255 52.1762 / 5.38995 9538 ttn.v3 0.841km -107 -2 868.5MHz, SF9BW125, 4/5CR
2026-05-08 06:06:24 -26°C -26% 3.66V / 3V 551,53,847,12,114 v255 52.1762 / 5.38995 9537 ttn.v3 0.841km -108 -7.5 868.5MHz, SF9BW125, 4/5CR
0.367km -115 -7.5 868.5MHz, SF9BW125, 4/5CR
2026-05-08 05:51:24 -26°C -26% 3.66V / 3V 554,54,849,12,114 v255 52.1762 / 5.38995 9536 ttn.v3 0.367km -115 -2 868.5MHz, SF9BW125, 4/5CR
0.841km -109 -5.75 868.5MHz, SF9BW125, 4/5CR
2026-05-08 05:36:24 -26°C -26% 3.66V / 3.01V 556,50,851,12,105 v255 52.1762 / 5.38995 9535 ttn.v3 0.367km -113 1 868.5MHz, SF9BW125, 4/5CR
0.841km -114 -6.75 868.5MHz, SF9BW125, 4/5CR
2026-05-08 05:21:24 -26°C -26% 3.66V / 3V 555,52,852,12,105 v255 52.1762 / 5.38995 9534 ttn.v3 0.367km -114 -1 868.5MHz, SF9BW125, 4/5CR
0.841km -111 -3.75 868.5MHz, SF9BW125, 4/5CR
2.812km -119 -14 868.5MHz, SF9BW125, 4/5CR
2026-05-08 05:06:24 -26°C -26% 3.66V / 3V 560,52,854,12,105 v255 52.1762 / 5.38995 9533 ttn.v3 0.841km -114 -5.75 868.5MHz, SF9BW125, 4/5CR
2026-05-08 04:51:24 -26°C -26% 3.66V / 3V 563,53,854,12,105 v255 52.1762 / 5.38995 9532 ttn.v3 0.367km -114 -0.5 868.5MHz, SF9BW125, 4/5CR
0.841km -109 -6.25 868.5MHz, SF9BW125, 4/5CR
2026-05-08 04:36:23 -26°C -26% 3.66V / 3V 563,52,856,12,96 v255 52.1762 / 5.38995 9531 ttn.v3 0.367km -113 -2.5 868.5MHz, SF9BW125, 4/5CR
0.841km -115 -4.25 868.5MHz, SF9BW125, 4/5CR
2026-05-08 04:21:23 -26°C -26% 3.66V / 3V 568,52,857,12,96 v255 52.1762 / 5.38995 9530 ttn.v3 0.841km -113 -6 868.5MHz, SF9BW125, 4/5CR
2026-05-08 04:06:23 -26°C -26% 3.66V / 3V 568,52,856,12,96 v255 52.1762 / 5.38995 9529 ttn.v3 0.367km -115 -4.2 868.5MHz, SF9BW125, 4/5CR
0.841km -109 -5.75 868.5MHz, SF9BW125, 4/5CR
2026-05-08 03:51:23 -26°C -26% 3.66V / 3V 568,53,857,12,96 v255 52.1762 / 5.38995 9528 ttn.v3 0.367km -115 -1.2 868.5MHz, SF9BW125, 4/5CR
0.841km -107 -3.75 868.5MHz, SF9BW125, 4/5CR
2026-05-08 03:36:23 -26°C -26% 3.66V / 3V 570,53,858,12,96 v255 52.1762 / 5.38995 9527 ttn.v3 0.367km -115 -1.5 868.5MHz, SF9BW125, 4/5CR
0.841km -111 -2.75 868.5MHz, SF9BW125, 4/5CR
2026-05-08 03:21:23 -26°C -26% 3.66V / 3V 573,53,859,12,96 v255 52.1762 / 5.38995 9526 ttn.v3 0.367km -115 -2.5 868.5MHz, SF9BW125, 4/5CR
0.841km -111 -8 868.5MHz, SF9BW125, 4/5CR
2026-05-08 03:06:23 -26°C -26% 3.66V / 3V 575,52,860,12,96 v255 52.1762 / 5.38995 9525 ttn.v3 0.367km -117 -3.2 868.5MHz, SF9BW125, 4/5CR
0.841km -115 -8.75 868.5MHz, SF9BW125, 4/5CR
2026-05-08 02:51:23 -26°C -26% 3.66V / 3.01V 577,53,862,12,96 v255 52.1762 / 5.38995 9524 ttn.v3 0.367km -112 -0.2 868.5MHz, SF9BW125, 4/5CR
0.841km -111 -7.5 868.5MHz, SF9BW125, 4/5CR
2026-05-08 02:36:23 -26°C -26% 3.66V / 3V 582,55,864,12,96 v255 52.1762 / 5.38995 9523 ttn.v3 0.367km -116 -2.8 868.5MHz, SF9BW125, 4/5CR
0.841km -108 -6.25 868.5MHz, SF9BW125, 4/5CR
2026-05-08 02:21:23 -26°C -26% 3.66V / 3V 584,55,865,12,96 v255 52.1762 / 5.38995 9522 ttn.v3 0.367km -116 -3.2 868.5MHz, SF9BW125, 4/5CR
0.841km -113 -6.5 868.5MHz, SF9BW125, 4/5CR
2026-05-08 02:06:22 -26°C -26% 3.66V / 3V 584,55,865,12,96 v255 52.1762 / 5.38995 9521 ttn.v3 0.841km -112 -6.75 868.5MHz, SF9BW125, 4/5CR
0.367km -116 -7.8 868.5MHz, SF9BW125, 4/5CR
2026-05-08 01:51:22 -26°C -26% 3.66V / 3.01V 584,53,866,12,96 v255 52.1762 / 5.38995 9520 ttn.v3 0.367km -116 -3.8 868.5MHz, SF9BW125, 4/5CR
0.841km -109 -8.75 868.5MHz, SF9BW125, 4/5CR
2026-05-08 01:36:22 -26°C -26% 3.66V / 3V 587,55,866,12,96 v255 52.1762 / 5.38995 9519 ttn.v3 0.841km -114 -2.25 868.5MHz, SF9BW125, 4/5CR
0.367km -116 -2.5 868.5MHz, SF9BW125, 4/5CR
2026-05-08 01:21:22 -26°C -26% 3.66V / 3V 588,54,867,12,96 v255 52.1762 / 5.38995 9518 ttn.v3 0.367km -116 -2 868.5MHz, SF9BW125, 4/5CR
0.841km -111 -3 868.5MHz, SF9BW125, 4/5CR
2026-05-08 01:06:22 -26°C -26% 3.66V / 3V 591,54,868,12,96 v255 52.1762 / 5.38995 9517 ttn.v3 0.841km -113 -1.75 868.5MHz, SF9BW125, 4/5CR
0.367km -116 -2 868.5MHz, SF9BW125, 4/5CR
2026-05-08 00:51:22 -26°C -26% 3.66V / 3V 589,53,869,12,96 v255 52.1762 / 5.38995 9516 ttn.v3 0.841km -112 -3 868.5MHz, SF9BW125, 4/5CR
0.367km -115 -3 868.5MHz, SF9BW125, 4/5CR
2026-05-08 00:36:22 -26°C -26% 3.66V / 3V 590,55,870,12,96 v255 52.1762 / 5.38995 9515 ttn.v3 0.367km -114 -1.5 868.5MHz, SF9BW125, 4/5CR
0.841km -113 -3.5 868.5MHz, SF9BW125, 4/5CR
2026-05-08 00:21:22 -26°C -26% 3.66V / 3V 597,54,874,12,96 v255 52.1762 / 5.38995 9514 ttn.v3 0.367km -116 -2.2 868.5MHz, SF9BW125, 4/5CR
0.841km -113 -5.75 868.5MHz, SF9BW125, 4/5CR
2026-05-08 00:06:22 -26°C -26% 3.66V / 3V 600,53,878,12,96 v255 52.1762 / 5.38995 9513 ttn.v3 0.367km -113 -0.2 868.5MHz, SF9BW125, 4/5CR
0.841km -113 -5.5 868.5MHz, SF9BW125, 4/5CR
2026-05-07 23:51:22 -26°C -26% 3.66V / 3V 598,55,881,12,96 v255 52.1762 / 5.38995 9512 ttn.v3 0.367km -113 -3.8 868.5MHz, SF9BW125, 4/5CR
0.841km -110 -5.25 868.5MHz, SF9BW125, 4/5CR
2026-05-07 23:36:22 -26°C -26% 3.66V / 3V 610,53,890,12,96 v255 52.1762 / 5.38995 9511 ttn.v3 0.367km -115 -1.2 868.5MHz, SF9BW125, 4/5CR
0.841km -111 -6.75 868.5MHz, SF9BW125, 4/5CR
2026-05-07 23:21:21 -26°C -26% 3.66V / 3V 613,56,895,12,96 v255 52.1762 / 5.38995 9510 ttn.v3 0.367km -115 -0.8 868.5MHz, SF9BW125, 4/5CR
0.841km -110 -6.75 868.5MHz, SF9BW125, 4/5CR
2026-05-07 23:06:21 -26°C -26% 3.66V / 3V 613,56,898,12,96 v255 52.1762 / 5.38995 9509 ttn.v3 0.367km -113 -0.5 868.5MHz, SF9BW125, 4/5CR
0.841km -114 -5.25 868.5MHz, SF9BW125, 4/5CR
2026-05-07 22:51:21 -26°C -26% 3.66V / 3V 614,56,902,12,96 v255 52.1762 / 5.38995 9508 ttn.v3 0.367km -116 -1 868.5MHz, SF9BW125, 4/5CR
0.841km -111 -6 868.5MHz, SF9BW125, 4/5CR
2026-05-07 22:36:21 -26°C -26% 3.66V / 3V 620,55,908,12,96 v255 52.1762 / 5.38995 9507 ttn.v3 0.367km -111 2.5 868.5MHz, SF9BW125, 4/5CR
0.841km -113 -3.5 868.5MHz, SF9BW125, 4/5CR
2026-05-07 22:21:21 -26°C -26% 3.66V / 3V 632,54,917,12,87 v255 52.1762 / 5.38995 9506 ttn.v3 0.367km -116 -2 868.5MHz, SF9BW125, 4/5CR
2026-05-07 22:06:21 -26°C -26% 3.66V / 3V 653,56,926,12,96 v255 52.1762 / 5.38995 9505 ttn.v3 0.367km -115 1.8 868.5MHz, SF9BW125, 4/5CR
0.841km -113 -6 868.5MHz, SF9BW125, 4/5CR
2026-05-07 21:51:21 -26°C -26% 3.66V / 3V 674,54,933,12,96 v255 52.1762 / 5.38995 9504 ttn.v3 0.367km -115 0 868.5MHz, SF9BW125, 4/5CR
0.841km -110 -6.75 868.5MHz, SF9BW125, 4/5CR
2026-05-07 21:36:30 -26°C -26% 3.66V / 3V 687,56,937,12,105 v255 52.1762 / 5.38995 9503 ttn.v3 0.367km -115 -0.5 868.5MHz, SF9BW125, 4/5CR
2026-05-07 21:21:21 -26°C -26% 3.66V / 3V 694,57,939,12,105 v255 52.1762 / 5.38995 9502 ttn.v3 0.367km -115 -3.5 868.5MHz, SF9BW125, 4/5CR
0.841km -113 -7.5 868.5MHz, SF9BW125, 4/5CR
2026-05-07 21:06:37 -26°C -26% 3.66V / 3V 698,57,940,12,105 v255 52.1762 / 5.38995 9501 ttn.v3 0.841km -114 -8.25 868.5MHz, SF9BW125, 4/5CR
2026-05-07 20:36:21 -26°C -26% 3.66V / 3V 707,55,943,12,105 v255 52.1762 / 5.38995 9499 ttn.v3 0.841km -114 -7.5 868.5MHz, SF9BW125, 4/5CR
2026-05-07 20:06:20 -26°C -26% 3.66V / 3V 710,56,945,12,114 v255 52.1762 / 5.38995 9497 ttn.v3 0.367km -114 -5.8 868.5MHz, SF9BW125, 4/5CR
2026-05-07 19:51:20 -26°C -26% 3.66V / 3V 713,58,946,12,114 v255 52.1762 / 5.38995 9496 ttn.v3 0.841km -114 -9.75 868.5MHz, SF9BW125, 4/5CR
2026-05-07 19:21:20 -26°C -26% 3.66V / 3V 714,58,947,12,114 v255 52.1762 / 5.38995 9494 ttn.v3 0.841km -117 -12 868.5MHz, SF9BW125, 4/5CR
2026-05-07 19:06:28 -26°C -26% 3.66V / 3V 714,58,946,12,114 v255 52.1762 / 5.38995 9493 ttn.v3 0.367km -111 -3.8 868.5MHz, SF9BW125, 4/5CR
0.841km -112 -9 868.5MHz, SF9BW125, 4/5CR
2026-05-07 18:51:36 -26°C -26% 3.66V / 3V 714,58,947,12,114 v255 52.1762 / 5.38995 9492 ttn.v3 0.841km -114 -7.5 868.5MHz, SF9BW125, 4/5CR
2026-05-07 18:36:20 -26°C -26% 3.66V / 3V 712,59,945,12,114 v255 52.1762 / 5.38995 9491 ttn.v3 0.367km -116 -8.5 868.5MHz, SF9BW125, 4/5CR
2026-05-07 18:21:28 -26°C -26% 3.66V / 3V 712,58,945,12,114 v255 52.1762 / 5.38995 9490 ttn.v3 0.367km -107 -4.5 868.5MHz, SF9BW125, 4/5CR
2026-05-07 17:51:20 -26°C -26% 3.66V / 3V 715,59,947,12,114 v255 52.1762 / 5.38995 9488 ttn.v3 0.367km -116 -5.8 868.5MHz, SF9BW125, 4/5CR
2026-05-07 17:36:27 -26°C -26% 3.66V / 3V 717,59,947,12,114 v255 52.1762 / 5.38995 9487 ttn.v3 0.841km -113 -9 868.5MHz, SF9BW125, 4/5CR
2026-05-07 17:06:34 -26°C -26% 3.66V / 3V 716,58,946,12,114 v255 52.1762 / 5.38995 9485 ttn.v3 0.367km -113 -8.2 868.5MHz, SF9BW125, 4/5CR
2026-05-07 16:21:19 -26°C -26% 3.66V / 3V 720,59,947,12,123 v255 52.1762 / 5.38995 9482 ttn.v3 0.841km -111 -9.25 868.5MHz, SF9BW125, 4/5CR
2026-05-07 15:51:28 -26°C -26% 3.66V / 3V 722,58,947,12,140 v255 52.1762 / 5.38995 9480 ttn.v3 0.367km -116 -9.5 868.5MHz, SF9BW125, 4/5CR
2026-05-07 15:21:19 -26°C -26% 3.66V / 3V 724,59,949,12,140 v255 52.1762 / 5.38995 9478 ttn.v3 0.367km -113 2.2 868.5MHz, SF9BW125, 4/5CR
2.812km -115 -12.8 868.5MHz, SF9BW125, 4/5CR
2026-05-07 14:51:27 -26°C -26% 3.66V / 3V 721,59,952,12,149 v255 52.1762 / 5.38995 9476 ttn.v3 0.367km -113 -5.8 868.5MHz, SF9BW125, 4/5CR
2026-05-07 14:37:04 -26°C -26% 3.66V / 3V 727,59,950,12,149 v255 52.1762 / 5.38995 9475 ttn.v3 0.367km -117 -9.8 868.5MHz, SF12BW125, 4/5CR
0.841km -115 -11.5 868.5MHz, SF12BW125, 4/5CR
2.045km -119 -19.2 868.5MHz, SF12BW125, 4/5CR
2026-05-07 14:21:34 -26°C -26% 3.66V / 3V 724,57,949,12,149 v255 52.1762 / 5.38992 9474 ttn.v3 0.369km -115 -2.5 868.5MHz, SF9BW125, 4/5CR
2026-05-07 14:06:28 -26°C -26% 3.66V / 3V 724,58,949,12,149 v255 52.1762 / 5.38992 9473 ttn.v3 0.369km -114 -9.5 868.5MHz, SF9BW125, 4/5CR
2026-05-07 13:51:18 -26°C -26% 3.66V / 3V 725,57,948,12,158 v255 52.1762 / 5.38992 9472 ttn.v3 0.369km -116 -1.5 868.5MHz, SF9BW125, 4/5CR
0.841km -109 -9.75 868.5MHz, SF9BW125, 4/5CR
2026-05-07 13:36:34 -26°C -26% 3.66V / 3V 723,59,946,12,158 v255 52.1762 / 5.38992 9471 ttn.v3 0.841km -117 -7 868.5MHz, SF9BW125, 4/5CR
2026-05-07 13:21:18 -26°C -26% 3.66V / 3V 724,57,945,12,140 v255 52.1762 / 5.38992 9470 ttn.v3 0.369km -113 -1.2 868.5MHz, SF9BW125, 4/5CR
2026-05-07 13:06:18 -26°C -26% 3.66V / 3V 725,59,947,12,140 v255 52.1762 / 5.38992 9469 ttn.v3 0.841km -117 -6.25 868.5MHz, SF9BW125, 4/5CR
0.369km -116 -8.8 868.5MHz, SF9BW125, 4/5CR
2026-05-07 12:51:18 -26°C -26% 3.66V / 3V 725,59,947,12,149 v255 52.1762 / 5.38992 9468 ttn.v3 0.369km -111 -1.2 868.5MHz, SF9BW125, 4/5CR
2026-05-07 12:36:18 -26°C -26% 3.66V / 3V 726,59,946,12,158 v255 52.1762 / 5.38992 9467 ttn.v3 0.841km -114 -11.25 868.5MHz, SF9BW125, 4/5CR
2026-05-07 12:21:18 -26°C -26% 3.66V / 3V 724,58,944,12,149 v255 52.1762 / 5.38992 9466 ttn.v3 0.841km -108 -5.75 868.5MHz, SF9BW125, 4/5CR
2026-05-07 11:51:26 -26°C -26% 3.66V / 3V 726,56,943,12,149 v255 52.1762 / 5.38992 9464 ttn.v3 0.369km -116 -3.5 868.5MHz, SF9BW125, 4/5CR
2026-05-07 11:36:18 -26°C -26% 3.66V / 3V 725,55,941,12,140 v255 52.1762 / 5.38992 9463 ttn.v3 0.369km -115 -1 868.5MHz, SF9BW125, 4/5CR
2026-05-07 10:36:17 -26°C -26% 3.66V / 3V 718,56,927,12,114 v255 52.1762 / 5.38992 9459 ttn.v3 0.369km -113 -5.5 868.5MHz, SF9BW125, 4/5CR
2026-05-07 09:21:17 -26°C -26% 3.66V / 3V 606,53,861,12,105 v255 52.1762 / 5.38992 9454 ttn.v3 0.841km -112 -10.5 868.5MHz, SF9BW125, 4/5CR
2026-05-07 08:51:17 -26°C -26% 3.66V / 3V 568,51,854,12,105 v255 52.1762 / 5.38992 9452 ttn.v3 0.841km -110 -8.5 868.5MHz, SF9BW125, 4/5CR
2026-05-07 08:06:17 -26°C -26% 3.66V / 3V 526,51,830,12,123 v255 52.1762 / 5.38992 9449 ttn.v3 0.841km -113 -6.75 868.5MHz, SF9BW125, 4/5CR
0.369km -116 -8.2 868.5MHz, SF9BW125, 4/5CR
2026-05-07 07:36:16 -26°C -26% 3.66V / 3.01V 524,51,831,39,123 v255 52.1762 / 5.38992 9447 ttn.v3 0.841km -113 -9.5 868.5MHz, SF9BW125, 4/5CR
2026-05-07 07:06:16 -26°C -26% 3.66V / 3V 531,50,836,12,114 v255 52.1762 / 5.38992 9445 ttn.v3 0.841km -114 -8.5 868.5MHz, SF9BW125, 4/5CR
2026-05-07 06:51:16 -26°C -26% 3.66V / 3V 535,52,838,12,114 v255 52.1762 / 5.38992 9444 ttn.v3 0.841km -113 -8.5 868.5MHz, SF9BW125, 4/5CR
2026-05-07 06:36:16 -26°C -26% 3.66V / 3V 535,52,838,12,114 v255 52.1762 / 5.38992 9443 ttn.v3 0.369km -109 -6.8 868.5MHz, SF9BW125, 4/5CR
0.841km -117 -7.25 868.5MHz, SF9BW125, 4/5CR
2.81km -119 -12.5 868.5MHz, SF9BW125, 4/5CR
2026-05-07 06:21:16 -26°C -26% 3.66V / 3.01V 537,50,839,12,105 v255 52.1762 / 5.38992 9442 ttn.v3 2.81km -116 -13.5 868.5MHz, SF9BW125, 4/5CR
2026-05-07 05:51:15 -26°C -26% 3.66V / 3V 539,51,842,12,105 v255 52.1762 / 5.38992 9440 ttn.v3 0.369km -115 -7.8 868.5MHz, SF9BW125, 4/5CR
0.841km -109 -8 868.5MHz, SF9BW125, 4/5CR
2.81km -113 -11.2 868.5MHz, SF9BW125, 4/5CR
2026-05-07 05:21:15 -26°C -26% 3.66V / 3V 542,52,844,12,96 v255 52.1762 / 5.38992 9438 ttn.v3 0.841km -114 -4.5 868.5MHz, SF9BW125, 4/5CR
0.369km -114 -5 868.5MHz, SF9BW125, 4/5CR
2026-05-07 05:06:15 -26°C -26% 3.66V / 3V 544,52,845,12,96 v255 52.1762 / 5.38992 9437 ttn.v3 0.841km -111 -5.25 868.5MHz, SF9BW125, 4/5CR
0.369km -115 -6 868.5MHz, SF9BW125, 4/5CR
2.81km -111 -11.2 868.5MHz, SF9BW125, 4/5CR
2026-05-07 04:51:15 -26°C -26% 3.66V / 3V 544,52,846,12,96 v255 52.1762 / 5.38992 9436 ttn.v3 0.369km -115 -5 868.5MHz, SF9BW125, 4/5CR
0.841km -114 -10.25 868.5MHz, SF9BW125, 4/5CR
2026-05-07 04:21:15 -26°C -26% 3.66V / 3.01V 544,53,847,12,96 v255 52.1762 / 5.38992 9434 ttn.v3 0.369km -116 -8.8 868.5MHz, SF9BW125, 4/5CR
0.841km -113 -9.5 868.5MHz, SF9BW125, 4/5CR
2026-05-07 04:06:14 -26°C -26% 3.66V / 3V 545,52,849,12,96 v255 52.1762 / 5.38992 9433 ttn.v3 0.369km -116 -5.8 868.5MHz, SF9BW125, 4/5CR
0.841km -113 -7 868.5MHz, SF9BW125, 4/5CR
2026-05-07 03:51:14 -26°C -26% 3.66V / 3V 551,53,851,12,96 v255 52.1762 / 5.38992 9432 ttn.v3 0.841km -115 -4.25 868.5MHz, SF9BW125, 4/5CR
0.369km -116 -5 868.5MHz, SF9BW125, 4/5CR
2026-05-07 03:36:14 -26°C -26% 3.66V / 3.01V 554,54,852,12,87 v255 52.1762 / 5.38992 9431 ttn.v3 0.369km -109 -4.5 868.5MHz, SF9BW125, 4/5CR
0.841km -108 -5.25 868.5MHz, SF9BW125, 4/5CR
2026-05-07 03:21:14 -26°C -26% 3.66V / 3V 557,53,854,12,87 v255 52.1762 / 5.38992 9430 ttn.v3 0.369km -112 -4.2 868.5MHz, SF9BW125, 4/5CR
2026-05-07 03:06:14 -26°C -26% 3.66V / 3V 556,53,855,12,87 v255 52.1762 / 5.38992 9429 ttn.v3 0.841km -114 -6.5 868.5MHz, SF9BW125, 4/5CR
2026-05-07 02:51:14 -26°C -26% 3.66V / 3V 559,53,855,12,87 v255 52.1762 / 5.38992 9428 ttn.v3 0.369km -107 -5 868.5MHz, SF9BW125, 4/5CR
0.841km -106 -6.5 868.5MHz, SF9BW125, 4/5CR
2026-05-07 02:36:14 -26°C -26% 3.66V / 3V 565,54,858,12,87 v255 52.1762 / 5.38992 9427 ttn.v3 0.369km -116 -3.5 868.5MHz, SF9BW125, 4/5CR
0.841km -115 -10 868.5MHz, SF9BW125, 4/5CR
2026-05-07 02:21:14 -26°C -26% 3.66V / 3V 567,54,857,12,87 v255 52.1762 / 5.38992 9426 ttn.v3 0.369km -114 -2 868.5MHz, SF9BW125, 4/5CR
0.841km -112 -8.25 868.5MHz, SF9BW125, 4/5CR
2026-05-07 02:06:14 -26°C -26% 3.66V / 3V 566,53,859,12,87 v255 52.1762 / 5.38992 9425 ttn.v3 0.369km -116 -3 868.5MHz, SF9BW125, 4/5CR
2026-05-07 01:51:14 -26°C -26% 3.66V / 3V 570,54,861,12,87 v255 52.1762 / 5.38992 9424 ttn.v3 0.369km -116 -6 868.5MHz, SF9BW125, 4/5CR
0.841km -111 -10.25 868.5MHz, SF9BW125, 4/5CR
2.81km -119 -12.8 868.5MHz, SF9BW125, 4/5CR
2026-05-07 01:36:13 -26°C -26% 3.66V / 3V 577,54,864,12,87 v255 52.1762 / 5.38992 9423 ttn.v3 0.369km -115 -2.5 868.5MHz, SF9BW125, 4/5CR
0.841km -114 -6.5 868.5MHz, SF9BW125, 4/5CR
2026-05-07 01:21:13 -26°C -26% 3.66V / 3V 586,55,867,12,87 v255 52.1762 / 5.38992 9422 ttn.v3 0.369km -111 0.8 868.5MHz, SF9BW125, 4/5CR
2026-05-07 01:06:13 -26°C -26% 3.66V / 3V 597,55,871,12,87 v255 52.1762 / 5.38992 9421 ttn.v3 0.369km -117 -5 868.5MHz, SF9BW125, 4/5CR
0.841km -113 -6.25 868.5MHz, SF9BW125, 4/5CR
2026-05-07 00:51:13 -26°C -26% 3.66V / 3V 606,54,878,12,87 v255 52.1762 / 5.38992 9420 ttn.v3 0.369km -111 1.2 868.5MHz, SF9BW125, 4/5CR
0.841km -114 -7.25 868.5MHz, SF9BW125, 4/5CR
2026-05-07 00:36:13 -26°C -26% 3.66V / 3V 613,54,882,12,87 v255 52.1762 / 5.38992 9419 ttn.v3 0.369km -108 4 868.5MHz, SF9BW125, 4/5CR
0.841km -112 -5.25 868.5MHz, SF9BW125, 4/5CR
2026-05-07 00:21:13 -26°C -26% 3.66V / 3V 616,54,885,12,87 v255 52.1762 / 5.38992 9418 ttn.v3 0.369km -117 -3.8 868.5MHz, SF9BW125, 4/5CR
2026-05-07 00:06:13 -26°C -26% 3.66V / 3V 620,55,889,12,87 v255 52.1762 / 5.38992 9417 ttn.v3 0.369km -115 0.8 868.5MHz, SF9BW125, 4/5CR
0.841km -111 -6.25 868.5MHz, SF9BW125, 4/5CR
2026-05-06 23:51:13 -26°C -26% 3.66V / 3V 621,53,895,12,87 v255 52.1762 / 5.38992 9416 ttn.v3 0.369km -115 -0.5 868.5MHz, SF9BW125, 4/5CR
0.841km -107 -8 868.5MHz, SF9BW125, 4/5CR
2026-05-06 23:36:13 -26°C -26% 3.66V / 3V 634,55,902,12,87 v255 52.1762 / 5.38992 9415 ttn.v3 0.369km -116 -5.2 868.5MHz, SF9BW125, 4/5CR
0.841km -111 -11 868.5MHz, SF9BW125, 4/5CR
2026-05-06 23:21:13 -26°C -26% 3.66V / 3V 640,54,906,12,87 v255 52.1762 / 5.38992 9414 ttn.v3 0.369km -114 -3.5 868.5MHz, SF9BW125, 4/5CR
0.841km -115 -6.5 868.5MHz, SF9BW125, 4/5CR
2.81km -119 -14 868.5MHz, SF9BW125, 4/5CR
2026-05-06 23:06:13 -26°C -26% 3.66V / 3V 640,55,905,12,87 v255 52.1762 / 5.38992 9413 ttn.v3 0.369km -116 -4.5 868.5MHz, SF9BW125, 4/5CR
0.841km -101 -9.75 868.5MHz, SF9BW125, 4/5CR
2026-05-06 22:51:12 -26°C -26% 3.66V / 3V 640,55,905,12,87 v255 52.1762 / 5.38992 9412 ttn.v3 0.369km -116 -1.2 868.5MHz, SF9BW125, 4/5CR
0.841km -114 -5.5 868.5MHz, SF9BW125, 4/5CR
2026-05-06 22:36:12 -26°C -26% 3.66V / 3V 643,55,906,12,87 v255 52.1762 / 5.38992 9411 ttn.v3 0.369km -107 -4.5 868.5MHz, SF9BW125, 4/5CR
0.841km -113 -7.25 868.5MHz, SF9BW125, 4/5CR
2026-05-06 22:21:12 -26°C -26% 3.66V / 3V 643,55,905,12,87 v255 52.1762 / 5.38992 9410 ttn.v3 0.369km -107 -5.5 868.5MHz, SF9BW125, 4/5CR
0.841km -107 -6.25 868.5MHz, SF9BW125, 4/5CR
2026-05-06 22:06:12 -26°C -26% 3.66V / 3V 655,55,911,12,96 v255 52.1762 / 5.38992 9409 ttn.v3 0.369km -116 -5 868.5MHz, SF9BW125, 4/5CR
0.841km -108 -5.75 868.5MHz, SF9BW125, 4/5CR
2026-05-06 21:51:12 -26°C -26% 3.66V / 3V 659,55,915,12,96 v255 52.1762 / 5.38992 9408 ttn.v3 0.369km -115 -7.5 868.5MHz, SF9BW125, 4/5CR
2026-05-06 21:36:12 -26°C -26% 3.66V / 3V 663,57,917,12,96 v255 52.1762 / 5.38992 9407 ttn.v3 0.369km -116 -3.8 868.5MHz, SF9BW125, 4/5CR
0.841km -112 -6.25 868.5MHz, SF9BW125, 4/5CR
2026-05-06 21:21:19 -26°C -26% 3.66V / 3V 665,56,919,12,96 v255 52.1762 / 5.38992 9406 ttn.v3 0.369km -114 -8.2 868.5MHz, SF9BW125, 4/5CR
0.841km -114 -11.25 868.5MHz, SF9BW125, 4/5CR
2026-05-06 21:06:12 -26°C -26% 3.66V / 3V 671,55,923,12,96 v255 52.1762 / 5.38992 9405 ttn.v3 0.841km -111 -6 868.5MHz, SF9BW125, 4/5CR
2026-05-06 20:36:19 -26°C -26% 3.66V / 3V 683,54,929,12,96 v255 52.1762 / 5.38992 9403 ttn.v3 0.841km -106 -7.25 868.5MHz, SF9BW125, 4/5CR
2026-05-06 20:06:12 -26°C -26% 3.66V / 3V 693,56,934,12,105 v255 52.1762 / 5.38992 9401 ttn.v3 0.369km -116 -8.5 868.5MHz, SF9BW125, 4/5CR
2026-05-06 19:36:11 -26°C -26% 3.66V / 3V 706,56,940,12,105 v255 52.1762 / 5.38992 9399 ttn.v3 0.841km -115 -3 868.5MHz, SF9BW125, 4/5CR
0.369km -112 -7.2 868.5MHz, SF9BW125, 4/5CR
2026-05-06 19:21:12 -26°C -26% 3.66V / 3V 708,55,941,12,105 v255 52.1762 / 5.38992 9398 ttn.v3 0.841km -108 -7.5 868.5MHz, SF9BW125, 4/5CR
2026-05-06 19:06:11 -26°C -26% 3.66V / 3V 710,56,942,12,105 v255 52.1762 / 5.38992 9397 ttn.v3 0.841km -108 -9.5 868.5MHz, SF9BW125, 4/5CR
2026-05-06 18:51:19 -26°C -26% 3.66V / 3V 710,57,942,12,105 v255 52.1762 / 5.38992 9396 ttn.v3 0.841km -112 -11.75 868.5MHz, SF9BW125, 4/5CR
2026-05-06 18:36:11 -26°C -26% 3.66V / 3V 710,57,942,12,105 v255 52.1762 / 5.38992 9395 ttn.v3 0.841km -107 -9 868.5MHz, SF9BW125, 4/5CR
2026-05-06 18:21:11 -26°C -26% 3.66V / 3V 710,57,941,12,105 v255 52.1762 / 5.38992 9394 ttn.v3 0.841km -108 -4.5 868.5MHz, SF9BW125, 4/5CR
0.369km -114 -4.8 868.5MHz, SF9BW125, 4/5CR
2026-05-06 18:06:19 -26°C -26% 3.66V / 3V 708,58,940,12,105 v255 52.1762 / 5.38992 9393 ttn.v3 0.841km -113 -5.5 868.5MHz, SF9BW125, 4/5CR
2026-05-06 17:51:18 -26°C -26% 3.66V / 3V 709,54,941,12,105 v255 52.1762 / 5.38992 9392 ttn.v3 0.841km -111 -9.75 868.5MHz, SF9BW125, 4/5CR
2026-05-06 17:36:11 -26°C -26% 3.66V / 3V 709,57,941,12,105 v255 52.1762 / 5.38992 9391 ttn.v3 0.841km -113 -5.25 868.5MHz, SF9BW125, 4/5CR
2026-05-06 17:21:11 -26°C -26% 3.66V / 3V 709,57,940,12,105 v255 52.1762 / 5.38992 9390 ttn.v3 0.841km -111 -5.25 868.5MHz, SF9BW125, 4/5CR
2026-05-06 17:06:11 -26°C -26% 3.66V / 3V 712,57,941,12,105 v255 52.1762 / 5.38992 9389 ttn.v3 0.841km -108 -5 868.5MHz, SF9BW125, 4/5CR
2026-05-06 16:51:11 -26°C -26% 3.66V / 3V 716,57,944,12,105 v255 52.1762 / 5.38992 9388 ttn.v3 0.841km -109 -6 868.5MHz, SF9BW125, 4/5CR
2026-05-06 16:36:17 -26°C -26% 3.66V / 3V 715,57,943,12,105 v255 52.1762 / 5.38992 9387 ttn.v3 0.841km -109 -7.5 868.5MHz, SF9BW125, 4/5CR
2026-05-06 16:06:24 -26°C -26% 3.66V / 3V 714,56,943,12,105 v255 52.1762 / 5.38992 9385 ttn.v3 0.841km -107 -7.75 868.5MHz, SF9BW125, 4/5CR
2026-05-06 15:51:10 -26°C -26% 3.66V / 3V 715,56,942,12,105 v255 52.1762 / 5.38992 9384 ttn.v3 0.369km -115 -4.2 868.5MHz, SF9BW125, 4/5CR
2026-05-06 15:36:27 -26°C -26% 3.66V / 3V 715,58,943,12,105 v255 52.1762 / 5.38992 9383 ttn.v3 0.369km -113 0.5 868.5MHz, SF9BW125, 4/5CR
2026-05-06 14:51:10 -26°C -26% 3.66V / 3V 713,56,941,12,105 v255 52.1762 / 5.38992 9380 ttn.v3 0.369km -111 0.5 868.5MHz, SF9BW125, 4/5CR
0.841km -109 -9.25 868.5MHz, SF9BW125, 4/5CR
2026-05-06 14:36:46 -26°C -26% 3.66V / 3V 719,57,942,12,105 v255 52.1762 / 5.38992 9379 ttn.v3 0.369km -114 1.5 868.5MHz, SF12BW125, 4/5CR
0.841km -99 -7.5 868.5MHz, SF12BW125, 4/5CR
2.81km -115 -19 868.5MHz, SF12BW125, 4/5CR
2026-05-06 14:06:18 -26°C -26% 3.66V / 3V 716,56,943,12,105 v255 52.1762 / 5.38998 9377 ttn.v3 0.841km -108 -7 868.5MHz, SF9BW125, 4/5CR
2026-05-06 13:51:09 -26°C -26% 3.66V / 3V 716,57,942,12,105 v255 52.1762 / 5.38998 9376 ttn.v3 0.841km -108 -8 868.5MHz, SF9BW125, 4/5CR
2026-05-06 13:36:09 -26°C -26% 3.66V / 3V 715,57,942,12,105 v255 52.1762 / 5.38998 9375 ttn.v3 0.841km -111 -6.5 868.5MHz, SF9BW125, 4/5CR
2026-05-06 13:21:09 -26°C -26% 3.66V / 3V 716,56,942,12,114 v255 52.1762 / 5.38998 9374 ttn.v3 0.841km -112 -11.5 868.5MHz, SF9BW125, 4/5CR
2026-05-06 13:06:09 -26°C -26% 3.66V / 3V 714,57,942,12,105 v255 52.1762 / 5.38998 9373 ttn.v3 0.365km -111 3.8 868.5MHz, SF9BW125, 4/5CR
2026-05-06 12:51:09 -26°C -26% 3.66V / 3V 716,56,939,12,105 v255 52.1762 / 5.38998 9372 ttn.v3 0.841km -114 -7 868.5MHz, SF9BW125, 4/5CR
2026-05-06 12:36:25 -26°C -26% 3.66V / 3V 705,56,931,12,105 v255 52.1762 / 5.38998 9371 ttn.v3 0.841km -107 -10 868.5MHz, SF9BW125, 4/5CR
2026-05-06 12:21:09 -26°C -26% 3.66V / 3V 703,56,930,12,105 v255 52.1762 / 5.38998 9370 ttn.v3 0.365km -108 0.8 868.5MHz, SF9BW125, 4/5CR
0.841km -106 -6.25 868.5MHz, SF9BW125, 4/5CR
2026-05-06 12:06:09 -26°C -26% 3.66V / 3V 704,56,930,12,105 v255 52.1762 / 5.38998 9369 ttn.v3 0.841km -106 -8.75 868.5MHz, SF9BW125, 4/5CR
2026-05-06 11:51:16 -26°C -26% 3.66V / 3V 710,56,933,12,105 v255 52.1762 / 5.38998 9368 ttn.v3 2.814km -119 -11.2 868.5MHz, SF9BW125, 4/5CR
2026-05-06 11:36:09 -26°C -26% 3.68V / 3V 715,57,935,12,105 v255 52.1762 / 5.38998 9367 ttn.v3 0.841km -113 -7.5 868.5MHz, SF9BW125, 4/5CR
2026-05-06 11:21:09 -26°C -26% 3.68V / 3V 718,56,936,12,105 v255 52.1762 / 5.38998 9366 ttn.v3 0.841km -110 -5.75 868.5MHz, SF9BW125, 4/5CR
2026-05-06 10:51:08 -26°C -26% 3.68V / 3V 722,53,936,12,114 v255 52.1762 / 5.38998 9364 ttn.v3 0.841km -109 -4.25 868.5MHz, SF9BW125, 4/5CR
2026-05-06 10:36:17 -26°C -26% 3.66V / 3V 723,52,932,12,114 v255 52.1762 / 5.38998 9363 ttn.v3 0.365km -116 -4.2 868.5MHz, SF9BW125, 4/5CR
2026-05-06 10:21:16 -26°C -26% 3.66V / 3V 722,56,925,12,114 v255 52.1762 / 5.38998 9362 ttn.v3 0.365km -114 -6.2 868.5MHz, SF9BW125, 4/5CR
2026-05-06 10:06:08 -26°C -26% 3.66V / 3V 713,53,916,12,114 v255 52.1762 / 5.38998 9361 ttn.v3 0.841km -109 -6.75 868.5MHz, SF9BW125, 4/5CR
2026-05-06 09:36:08 -26°C -26% 3.66V / 3V 669,55,872,12,114 v255 52.1762 / 5.38998 9359 ttn.v3 0.365km -110 -1.8 868.5MHz, SF9BW125, 4/5CR
2026-05-06 09:21:08 -26°C -26% 3.68V / 3V 607,55,856,12,123 v255 52.1762 / 5.38998 9358 ttn.v3 0.365km -116 -3 868.5MHz, SF9BW125, 4/5CR
2026-05-06 09:06:08 -26°C -26% 3.68V / 3V 588,54,854,12,123 v255 52.1762 / 5.38998 9357 ttn.v3 0.365km -113 1 868.5MHz, SF9BW125, 4/5CR
0.841km -108 -7.5 868.5MHz, SF9BW125, 4/5CR
2026-05-06 08:06:07 -26°C -26% 3.66V / 3V 558,54,845,12,131 v255 52.1762 / 5.38998 9353 ttn.v3 0.365km -116 -4.5 868.5MHz, SF9BW125, 4/5CR
2026-05-06 07:51:07 -26°C -26% 3.66V / 3V 559,53,844,12,131 v255 52.1762 / 5.38998 9352 ttn.v3 0.841km -108 -11.5 868.5MHz, SF9BW125, 4/5CR
2026-05-06 07:36:07 -26°C -26% 3.66V / 3V 555,54,843,12,131 v255 52.1762 / 5.38998 9351 ttn.v3 0.365km -116 -3.8 868.5MHz, SF9BW125, 4/5CR
0.841km -115 -11.75 868.5MHz, SF9BW125, 4/5CR
2026-05-06 06:51:07 -26°C -26% 3.66V / 3V 555,54,843,12,131 v255 52.1762 / 5.38998 9348 ttn.v3 0.365km -115 -0.5 868.5MHz, SF9BW125, 4/5CR
2026-05-06 06:36:07 -26°C -26% 3.66V / 3V 555,54,843,12,131 v255 52.1762 / 5.38998 9347 ttn.v3 0.365km -115 -6 868.5MHz, SF9BW125, 4/5CR
0.841km -113 -7.5 868.5MHz, SF9BW125, 4/5CR
2026-05-06 06:21:07 -26°C -26% 3.66V / 3V 556,54,843,12,131 v255 52.1762 / 5.38998 9346 ttn.v3 0.841km -112 -9 868.5MHz, SF9BW125, 4/5CR
2026-05-06 05:51:06 -26°C -26% 3.66V / 3V 549,54,840,12,140 v255 52.1762 / 5.38998 9344 ttn.v3 0.365km -107 0.2 868.5MHz, SF9BW125, 4/5CR
2026-05-06 05:36:06 -26°C -26% 3.66V / 3V 547,53,837,12,140 v255 52.1762 / 5.38998 9343 ttn.v3 0.365km -116 -8 868.5MHz, SF9BW125, 4/5CR
0.841km -111 -12.5 868.5MHz, SF9BW125, 4/5CR
2026-05-06 05:21:06 -26°C -26% 3.66V / 3V 543,54,834,12,149 v255 52.1762 / 5.38998 9342 ttn.v3 0.365km -111 -0.2 868.5MHz, SF9BW125, 4/5CR
2026-05-06 05:06:06 -26°C -26% 3.66V / 3V 541,55,832,12,158 v255 52.1762 / 5.38998 9341 ttn.v3 0.365km -115 -1.2 868.5MHz, SF9BW125, 4/5CR
0.841km -115 -10 868.5MHz, SF9BW125, 4/5CR
2026-05-06 04:51:06 -26°C -26% 3.66V / 3V 539,53,831,12,175 v255 52.1762 / 5.38998 9340 ttn.v3 0.365km -113 3 868.5MHz, SF9BW125, 4/5CR
0.841km -112 -8 868.5MHz, SF9BW125, 4/5CR

Message count: 200
Node count: 1

Messages per node

Number of messages in list aboveNodes
200

Statistics per gateway

GatewayNumber of messagesNumber of nodesNodes
1601 (0.841km)
1301 (0.365km)
121 (2.814km)
11 (2.045km)

Filter by dataset